sensor_id;sensor_type;location;lat;lon;timestamp;temperature;humidity
3860;DHT22;1945;52.036;8.614;2022-12-07T00:00:34;4.30;99.90
3860;DHT22;1945;52.036;8.614;2022-12-07T00:03:01;4.70;99.90
3860;DHT22;1945;52.036;8.614;2022-12-07T00:05:29;4.70;99.90
3860;DHT22;1945;52.036;8.614;2022-12-07T00:07:56;4.70;99.90
3860;DHT22;1945;52.036;8.614;2022-12-07T00:10:24;4.70;99.90
3860;DHT22;1945;52.036;8.614;2022-12-07T00:12:51;4.70;99.90
3860;DHT22;1945;52.036;8.614;2022-12-07T00:15:18;4.30;99.90
3860;DHT22;1945;52.036;8.614;2022-12-07T00:17:44;4.70;99.90
3860;DHT22;1945;52.036;8.614;2022-12-07T00:20:11;4.80;99.90
3860;DHT22;1945;52.036;8.614;2022-12-07T00:22:38;4.80;99.90
3860;DHT22;1945;52.036;8.614;2022-12-07T00:25:05;4.80;99.90
3860;DHT22;1945;52.036;8.614;2022-12-07T00:27:33;4.40;99.90
3860;DHT22;1945;52.036;8.614;2022-12-07T00:30:00;5.10;99.90
3860;DHT22;1945;52.036;8.614;2022-12-07T00:32:27;4.90;99.90
3860;DHT22;1945;52.036;8.614;2022-12-07T00:34:53;4.40;99.90
3860;DHT22;1945;52.036;8.614;2022-12-07T00:37:20;4.50;99.90
3860;DHT22;1945;52.036;8.614;2022-12-07T00:39:47;5.00;99.90
3860;DHT22;1945;52.036;8.614;2022-12-07T00:42:15;4.50;99.90
3860;DHT22;1945;52.036;8.614;2022-12-07T00:44:43;5.00;99.90
3860;DHT22;1945;52.036;8.614;2022-12-07T00:47:10;4.90;99.90
3860;DHT22;1945;52.036;8.614;2022-12-07T00:49:36;5.10;99.90
3860;DHT22;1945;52.036;8.614;2022-12-07T00:52:03;5.00;99.90
3860;DHT22;1945;52.036;8.614;2022-12-07T00:54:30;4.90;99.90
3860;DHT22;1945;52.036;8.614;2022-12-07T00:56:57;4.30;99.90
3860;DHT22;1945;52.036;8.614;2022-12-07T00:59:23;5.00;99.90
3860;DHT22;1945;52.036;8.614;2022-12-07T01:01:52;4.50;99.90
3860;DHT22;1945;52.036;8.614;2022-12-07T01:04:18;5.10;99.90
3860;DHT22;1945;52.036;8.614;2022-12-07T01:06:45;5.10;99.90
3860;DHT22;1945;52.036;8.614;2022-12-07T01:09:12;5.00;99.90
3860;DHT22;1945;52.036;8.614;2022-12-07T01:11:39;4.60;99.90
3860;DHT22;1945;52.036;8.614;2022-12-07T01:14:06;5.10;99.90
3860;DHT22;1945;52.036;8.614;2022-12-07T01:16:33;5.00;99.90
3860;DHT22;1945;52.036;8.614;2022-12-07T01:19:02;5.10;99.90
3860;DHT22;1945;52.036;8.614;2022-12-07T01:21:31;5.00;99.90
3860;DHT22;1945;52.036;8.614;2022-12-07T01:24:00;4.90;99.90
3860;DHT22;1945;52.036;8.614;2022-12-07T01:26:27;4.40;99.90
3860;DHT22;1945;52.036;8.614;2022-12-07T01:28:54;4.50;99.90
3860;DHT22;1945;52.036;8.614;2022-12-07T01:31:24;5.00;99.90
3860;DHT22;1945;52.036;8.614;2022-12-07T01:33:52;4.40;99.90
3860;DHT22;1945;52.036;8.614;2022-12-07T01:36:22;4.90;99.90
3860;DHT22;1945;52.036;8.614;2022-12-07T01:38:51;4.40;99.90
3860;DHT22;1945;52.036;8.614;2022-12-07T01:41:19;4.40;99.90
3860;DHT22;1945;52.036;8.614;2022-12-07T01:44:12;3.90;99.90
3860;DHT22;1945;52.036;8.614;2022-12-07T01:46:40;4.40;99.90
3860;DHT22;1945;52.036;8.614;2022-12-07T01:49:10;4.80;99.90
3860;DHT22;1945;52.036;8.614;2022-12-07T01:51:40;4.70;99.90
3860;DHT22;1945;52.036;8.614;2022-12-07T01:54:10;4.10;99.90
3860;DHT22;1945;52.036;8.614;2022-12-07T01:56:38;4.30;99.90
3860;DHT22;1945;52.036;8.614;2022-12-07T01:59:06;4.30;99.90
3860;DHT22;1945;52.036;8.614;2022-12-07T02:01:33;4.80;99.90
3860;DHT22;1945;52.036;8.614;2022-12-07T02:04:00;4.80;99.90
3860;DHT22;1945;52.036;8.614;2022-12-07T02:06:27;4.70;99.90
3860;DHT22;1945;52.036;8.614;2022-12-07T02:08:56;4.60;99.90
3860;DHT22;1945;52.036;8.614;2022-12-07T02:11:23;4.60;99.90
3860;DHT22;1945;52.036;8.614;2022-12-07T02:13:51;4.50;99.90
3860;DHT22;1945;52.036;8.614;2022-12-07T02:16:26;4.60;99.90
3860;DHT22;1945;52.036;8.614;2022-12-07T02:19:04;4.70;99.90
3860;DHT22;1945;52.036;8.614;2022-12-07T02:21:38;4.00;99.90
3860;DHT22;1945;52.036;8.614;2022-12-07T02:24:19;4.50;99.90
3860;DHT22;1945;52.036;8.614;2022-12-07T02:27:21;4.40;99.90
3860;DHT22;1945;52.036;8.614;2022-12-07T02:30:00;4.40;99.90
3860;DHT22;1945;52.036;8.614;2022-12-07T02:32:32;3.90;99.90
3860;DHT22;1945;52.036;8.614;2022-12-07T02:35:05;3.90;99.90
3860;DHT22;1945;52.036;8.614;2022-12-07T02:37:38;3.90;99.90
3860;DHT22;1945;52.036;8.614;2022-12-07T02:40:09;3.90;99.90
3860;DHT22;1945;52.036;8.614;2022-12-07T02:42:42;3.80;99.90
3860;DHT22;1945;52.036;8.614;2022-12-07T02:45:12;3.90;99.90
3860;DHT22;1945;52.036;8.614;2022-12-07T02:47:40;4.30;99.90
3860;DHT22;1945;52.036;8.614;2022-12-07T02:50:08;3.70;99.90
3860;DHT22;1945;52.036;8.614;2022-12-07T02:52:35;3.80;99.90
3860;DHT22;1945;52.036;8.614;2022-12-07T02:55:04;4.20;99.90
3860;DHT22;1945;52.036;8.614;2022-12-07T02:57:41;3.70;99.90
3860;DHT22;1945;52.036;8.614;2022-12-07T03:00:15;3.50;99.90
3860;DHT22;1945;52.036;8.614;2022-12-07T03:02:51;4.00;99.90
3860;DHT22;1945;52.036;8.614;2022-12-07T03:05:59;3.20;99.90
3860;DHT22;1945;52.036;8.614;2022-12-07T03:08:33;4.20;99.90
3860;DHT22;1945;52.036;8.614;2022-12-07T03:11:05;3.60;99.90
3860;DHT22;1945;52.036;8.614;2022-12-07T03:13:37;3.10;99.90
3860;DHT22;1945;52.036;8.614;2022-12-07T03:16:10;3.60;99.90
3860;DHT22;1945;52.036;8.614;2022-12-07T03:18:44;4.10;99.90
3860;DHT22;1945;52.036;8.614;2022-12-07T03:21:15;3.60;99.90
3860;DHT22;1945;52.036;8.614;2022-12-07T03:23:45;3.30;99.90
3860;DHT22;1945;52.036;8.614;2022-12-07T03:26:16;3.40;99.90
3860;DHT22;1945;52.036;8.614;2022-12-07T03:28:47;3.30;99.90
3860;DHT22;1945;52.036;8.614;2022-12-07T03:31:19;3.90;99.90
3860;DHT22;1945;52.036;8.614;2022-12-07T03:33:51;4.00;99.90
3860;DHT22;1945;52.036;8.614;2022-12-07T03:36:22;3.60;99.90
3860;DHT22;1945;52.036;8.614;2022-12-07T03:38:54;3.40;99.90
3860;DHT22;1945;52.036;8.614;2022-12-07T03:41:24;3.40;99.90
3860;DHT22;1945;52.036;8.614;2022-12-07T03:43:52;4.00;99.90
3860;DHT22;1945;52.036;8.614;2022-12-07T03:46:30;3.40;99.90
3860;DHT22;1945;52.036;8.614;2022-12-07T03:49:04;4.00;99.90
3860;DHT22;1945;52.036;8.614;2022-12-07T03:51:39;3.50;99.90
3860;DHT22;1945;52.036;8.614;2022-12-07T03:54:10;3.90;99.90
3860;DHT22;1945;52.036;8.614;2022-12-07T03:56:40;3.80;99.90
3860;DHT22;1945;52.036;8.614;2022-12-07T03:59:09;3.50;99.90
3860;DHT22;1945;52.036;8.614;2022-12-07T04:01:38;3.50;99.90
3860;DHT22;1945;52.036;8.614;2022-12-07T04:04:07;2.80;99.90
3860;DHT22;1945;52.036;8.614;2022-12-07T04:06:34;3.50;99.90
3860;DHT22;1945;52.036;8.614;2022-12-07T04:09:01;3.70;99.90
3860;DHT22;1945;52.036;8.614;2022-12-07T04:11:28;3.50;99.90
3860;DHT22;1945;52.036;8.614;2022-12-07T04:13:55;3.40;99.90
3860;DHT22;1945;52.036;8.614;2022-12-07T04:16:40;3.30;99.90
3860;DHT22;1945;52.036;8.614;2022-12-07T04:19:07;3.30;99.90
3860;DHT22;1945;52.036;8.614;2022-12-07T04:21:34;3.30;99.90
3860;DHT22;1945;52.036;8.614;2022-12-07T04:24:01;3.50;99.90
3860;DHT22;1945;52.036;8.614;2022-12-07T04:26:28;3.50;99.90
3860;DHT22;1945;52.036;8.614;2022-12-07T04:28:55;3.50;99.90
3860;DHT22;1945;52.036;8.614;2022-12-07T04:31:21;3.00;99.90
3860;DHT22;1945;52.036;8.614;2022-12-07T04:33:50;3.50;99.90
3860;DHT22;1945;52.036;8.614;2022-12-07T04:36:16;3.40;99.90
3860;DHT22;1945;52.036;8.614;2022-12-07T04:38:45;3.50;99.90
3860;DHT22;1945;52.036;8.614;2022-12-07T04:41:12;4.00;99.90
3860;DHT22;1945;52.036;8.614;2022-12-07T04:43:39;2.90;99.90
3860;DHT22;1945;52.036;8.614;2022-12-07T04:46:05;3.00;99.90
3860;DHT22;1945;52.036;8.614;2022-12-07T04:48:32;3.70;99.90
3860;DHT22;1945;52.036;8.614;2022-12-07T04:51:02;3.40;99.90
3860;DHT22;1945;52.036;8.614;2022-12-07T04:53:29;3.00;99.90
3860;DHT22;1945;52.036;8.614;2022-12-07T04:55:55;3.40;99.90
3860;DHT22;1945;52.036;8.614;2022-12-07T04:58:22;3.60;99.90
3860;DHT22;1945;52.036;8.614;2022-12-07T05:00:49;3.50;99.90
3860;DHT22;1945;52.036;8.614;2022-12-07T05:03:16;3.20;99.90
3860;DHT22;1945;52.036;8.614;2022-12-07T05:05:43;2.80;99.90
3860;DHT22;1945;52.036;8.614;2022-12-07T05:08:11;3.50;99.90
3860;DHT22;1945;52.036;8.614;2022-12-07T05:10:37;3.60;99.90
3860;DHT22;1945;52.036;8.614;2022-12-07T05:13:04;2.80;99.90
3860;DHT22;1945;52.036;8.614;2022-12-07T05:15:31;3.50;99.90
3860;DHT22;1945;52.036;8.614;2022-12-07T05:17:58;2.90;99.90
3860;DHT22;1945;52.036;8.614;2022-12-07T05:20:24;3.40;99.90
3860;DHT22;1945;52.036;8.614;2022-12-07T05:22:51;3.60;99.90
3860;DHT22;1945;52.036;8.614;2022-12-07T05:25:19;3.00;99.90
3860;DHT22;1945;52.036;8.614;2022-12-07T05:27:46;3.80;99.90
3860;DHT22;1945;52.036;8.614;2022-12-07T05:30:13;3.70;99.90
3860;DHT22;1945;52.036;8.614;2022-12-07T05:32:40;3.50;99.90
3860;DHT22;1945;52.036;8.614;2022-12-07T05:35:08;3.20;99.90
3860;DHT22;1945;52.036;8.614;2022-12-07T05:37:35;3.80;99.90
3860;DHT22;1945;52.036;8.614;2022-12-07T05:40:02;3.90;99.90
3860;DHT22;1945;52.036;8.614;2022-12-07T05:42:30;3.50;99.90
3860;DHT22;1945;52.036;8.614;2022-12-07T05:44:57;3.90;99.90
3860;DHT22;1945;52.036;8.614;2022-12-07T05:47:24;4.10;99.90
3860;DHT22;1945;52.036;8.614;2022-12-07T05:49:51;3.70;99.90
3860;DHT22;1945;52.036;8.614;2022-12-07T05:52:18;3.50;99.90
3860;DHT22;1945;52.036;8.614;2022-12-07T05:54:45;3.50;99.90
3860;DHT22;1945;52.036;8.614;2022-12-07T05:57:11;3.20;99.90
3860;DHT22;1945;52.036;8.614;2022-12-07T05:59:40;3.40;99.90
3860;DHT22;1945;52.036;8.614;2022-12-07T06:02:07;3.40;99.90
3860;DHT22;1945;52.036;8.614;2022-12-07T06:04:38;3.80;99.90
3860;DHT22;1945;52.036;8.614;2022-12-07T06:07:06;3.50;99.90
3860;DHT22;1945;52.036;8.614;2022-12-07T06:09:33;3.80;99.90
3860;DHT22;1945;52.036;8.614;2022-12-07T06:12:01;3.00;99.90
3860;DHT22;1945;52.036;8.614;2022-12-07T06:14:46;3.30;99.90
3860;DHT22;1945;52.036;8.614;2022-12-07T06:17:14;3.30;99.90
3860;DHT22;1945;52.036;8.614;2022-12-07T06:19:41;3.30;99.90
3860;DHT22;1945;52.036;8.614;2022-12-07T06:22:08;3.30;99.90
3860;DHT22;1945;52.036;8.614;2022-12-07T06:24:37;3.30;99.90
3860;DHT22;1945;52.036;8.614;2022-12-07T06:27:04;3.50;99.90
3860;DHT22;1945;52.036;8.614;2022-12-07T06:29:31;3.10;99.90
3860;DHT22;1945;52.036;8.614;2022-12-07T06:32:00;3.20;99.90
3860;DHT22;1945;52.036;8.614;2022-12-07T06:34:27;2.60;99.90
3860;DHT22;1945;52.036;8.614;2022-12-07T06:36:54;2.70;99.90
3860;DHT22;1945;52.036;8.614;2022-12-07T06:39:23;3.10;99.90
3860;DHT22;1945;52.036;8.614;2022-12-07T06:41:51;3.30;99.90
3860;DHT22;1945;52.036;8.614;2022-12-07T06:44:19;3.20;99.90
3860;DHT22;1945;52.036;8.614;2022-12-07T06:46:47;3.20;99.90
3860;DHT22;1945;52.036;8.614;2022-12-07T06:49:15;3.20;99.90
3860;DHT22;1945;52.036;8.614;2022-12-07T06:51:42;3.00;99.90
3860;DHT22;1945;52.036;8.614;2022-12-07T06:54:09;2.80;99.90
3860;DHT22;1945;52.036;8.614;2022-12-07T06:56:36;3.30;99.90
3860;DHT22;1945;52.036;8.614;2022-12-07T06:59:03;3.10;99.90
3860;DHT22;1945;52.036;8.614;2022-12-07T07:01:31;3.50;99.90
3860;DHT22;1945;52.036;8.614;2022-12-07T07:03:57;3.00;99.90
3860;DHT22;1945;52.036;8.614;2022-12-07T07:06:26;3.10;99.90
3860;DHT22;1945;52.036;8.614;2022-12-07T07:08:52;3.40;99.90
3860;DHT22;1945;52.036;8.614;2022-12-07T07:11:20;2.80;99.90
3860;DHT22;1945;52.036;8.614;2022-12-07T07:13:46;2.90;99.90
3860;DHT22;1945;52.036;8.614;2022-12-07T07:16:13;2.90;99.90
3860;DHT22;1945;52.036;8.614;2022-12-07T07:18:40;3.00;99.90
3860;DHT22;1945;52.036;8.614;2022-12-07T07:21:07;3.30;99.90
3860;DHT22;1945;52.036;8.614;2022-12-07T07:23:35;3.30;99.90
3860;DHT22;1945;52.036;8.614;2022-12-07T07:26:02;2.40;99.90
3860;DHT22;1945;52.036;8.614;2022-12-07T07:28:29;2.70;99.90
3860;DHT22;1945;52.036;8.614;2022-12-07T07:30:56;3.40;99.90
3860;DHT22;1945;52.036;8.614;2022-12-07T07:33:22;2.40;99.90
3860;DHT22;1945;52.036;8.614;2022-12-07T07:35:49;2.50;99.90
3860;DHT22;1945;52.036;8.614;2022-12-07T07:38:16;3.00;99.90
3860;DHT22;1945;52.036;8.614;2022-12-07T07:40:45;2.20;99.90
3860;DHT22;1945;52.036;8.614;2022-12-07T07:43:11;2.20;99.90
3860;DHT22;1945;52.036;8.614;2022-12-07T07:45:38;3.00;99.90
3860;DHT22;1945;52.036;8.614;2022-12-07T07:48:06;2.50;99.90
3860;DHT22;1945;52.036;8.614;2022-12-07T07:50:32;3.00;99.90
3860;DHT22;1945;52.036;8.614;2022-12-07T07:52:59;3.20;99.90
3860;DHT22;1945;52.036;8.614;2022-12-07T07:55:26;2.20;99.90
3860;DHT22;1945;52.036;8.614;2022-12-07T07:57:54;2.90;99.90
3860;DHT22;1945;52.036;8.614;2022-12-07T08:00:22;3.00;99.90
3860;DHT22;1945;52.036;8.614;2022-12-07T08:02:49;2.80;99.90
3860;DHT22;1945;52.036;8.614;2022-12-07T08:05:16;3.20;99.90
3860;DHT22;1945;52.036;8.614;2022-12-07T08:07:43;2.70;99.90
3860;DHT22;1945;52.036;8.614;2022-12-07T08:10:11;2.80;99.90
3860;DHT22;1945;52.036;8.614;2022-12-07T08:12:40;2.80;99.90
3860;DHT22;1945;52.036;8.614;2022-12-07T08:15:29;3.00;99.90
3860;DHT22;1945;52.036;8.614;2022-12-07T08:17:56;3.40;99.90
3860;DHT22;1945;52.036;8.614;2022-12-07T08:20:23;3.00;99.90
3860;DHT22;1945;52.036;8.614;2022-12-07T08:22:50;3.10;99.90
3860;DHT22;1945;52.036;8.614;2022-12-07T08:25:17;3.40;99.90
3860;DHT22;1945;52.036;8.614;2022-12-07T08:27:44;3.10;99.90
3860;DHT22;1945;52.036;8.614;2022-12-07T08:30:12;3.60;99.90
3860;DHT22;1945;52.036;8.614;2022-12-07T08:32:40;3.20;99.90
3860;DHT22;1945;52.036;8.614;2022-12-07T08:35:07;2.70;99.90
3860;DHT22;1945;52.036;8.614;2022-12-07T08:37:34;3.80;99.90
3860;DHT22;1945;52.036;8.614;2022-12-07T08:40:02;2.90;99.90
3860;DHT22;1945;52.036;8.614;2022-12-07T08:42:29;3.40;99.90
3860;DHT22;1945;52.036;8.614;2022-12-07T08:45:04;3.10;99.90
3860;DHT22;1945;52.036;8.614;2022-12-07T08:47:32;3.60;99.90
3860;DHT22;1945;52.036;8.614;2022-12-07T08:50:02;4.00;99.90
3860;DHT22;1945;52.036;8.614;2022-12-07T08:52:30;3.40;99.90
3860;DHT22;1945;52.036;8.614;2022-12-07T08:54:57;3.40;99.90
3860;DHT22;1945;52.036;8.614;2022-12-07T08:57:25;3.70;99.90
3860;DHT22;1945;52.036;8.614;2022-12-07T08:59:53;3.70;99.90
3860;DHT22;1945;52.036;8.614;2022-12-07T09:02:20;3.10;99.90
3860;DHT22;1945;52.036;8.614;2022-12-07T09:04:47;3.30;99.90
3860;DHT22;1945;52.036;8.614;2022-12-07T09:07:16;3.50;99.90
3860;DHT22;1945;52.036;8.614;2022-12-07T09:09:43;3.40;99.90
3860;DHT22;1945;52.036;8.614;2022-12-07T09:12:10;3.60;99.90
3860;DHT22;1945;52.036;8.614;2022-12-07T09:14:37;3.40;99.90
3860;DHT22;1945;52.036;8.614;2022-12-07T09:17:08;4.00;99.90
3860;DHT22;1945;52.036;8.614;2022-12-07T09:19:35;4.30;99.90
3860;DHT22;1945;52.036;8.614;2022-12-07T09:22:02;3.90;99.90
3860;DHT22;1945;52.036;8.614;2022-12-07T09:24:31;3.40;99.90
3860;DHT22;1945;52.036;8.614;2022-12-07T09:26:58;3.40;99.90
3860;DHT22;1945;52.036;8.614;2022-12-07T09:29:25;3.80;99.90
3860;DHT22;1945;52.036;8.614;2022-12-07T09:31:52;4.20;99.90
3860;DHT22;1945;52.036;8.614;2022-12-07T09:34:19;4.70;99.90
3860;DHT22;1945;52.036;8.614;2022-12-07T09:36:47;3.70;99.90
3860;DHT22;1945;52.036;8.614;2022-12-07T09:39:13;3.70;99.90
3860;DHT22;1945;52.036;8.614;2022-12-07T09:41:43;3.60;99.90
3860;DHT22;1945;52.036;8.614;2022-12-07T09:44:13;3.70;99.90
3860;DHT22;1945;52.036;8.614;2022-12-07T09:46:42;3.80;99.90
3860;DHT22;1945;52.036;8.614;2022-12-07T09:49:12;4.50;99.90
3860;DHT22;1945;52.036;8.614;2022-12-07T09:51:39;4.40;99.90
3860;DHT22;1945;52.036;8.614;2022-12-07T09:54:08;4.40;99.90
3860;DHT22;1945;52.036;8.614;2022-12-07T09:56:37;4.60;99.90
3860;DHT22;1945;52.036;8.614;2022-12-07T09:59:05;4.70;99.90
3860;DHT22;1945;52.036;8.614;2022-12-07T10:01:33;4.10;99.90
3860;DHT22;1945;52.036;8.614;2022-12-07T10:04:06;4.70;99.90
3860;DHT22;1945;52.036;8.614;2022-12-07T10:06:35;4.60;99.90
3860;DHT22;1945;52.036;8.614;2022-12-07T10:09:08;4.60;99.90
3860;DHT22;1945;52.036;8.614;2022-12-07T10:11:35;4.20;99.90
3860;DHT22;1945;52.036;8.614;2022-12-07T10:14:13;4.20;99.90
3860;DHT22;1945;52.036;8.614;2022-12-07T10:16:41;4.50;99.90
3860;DHT22;1945;52.036;8.614;2022-12-07T10:19:19;4.20;99.90
3860;DHT22;1945;52.036;8.614;2022-12-07T10:22:04;4.40;99.90
3860;DHT22;1945;52.036;8.614;2022-12-07T10:24:31;3.90;99.90
3860;DHT22;1945;52.036;8.614;2022-12-07T10:26:58;4.90;99.90
3860;DHT22;1945;52.036;8.614;2022-12-07T10:29:29;4.50;99.90
3860;DHT22;1945;52.036;8.614;2022-12-07T10:31:58;5.30;99.90
3860;DHT22;1945;52.036;8.614;2022-12-07T10:34:27;4.00;99.90
3860;DHT22;1945;52.036;8.614;2022-12-07T10:37:13;4.60;99.90
3860;DHT22;1945;52.036;8.614;2022-12-07T10:39:41;5.10;99.90
3860;DHT22;1945;52.036;8.614;2022-12-07T10:42:17;4.80;99.90
3860;DHT22;1945;52.036;8.614;2022-12-07T10:44:46;4.70;99.90
3860;DHT22;1945;52.036;8.614;2022-12-07T10:47:33;5.10;99.90
3860;DHT22;1945;52.036;8.614;2022-12-07T10:50:29;4.60;99.90
3860;DHT22;1945;52.036;8.614;2022-12-07T10:56:13;4.60;99.90
3860;DHT22;1945;52.036;8.614;2022-12-07T10:58:55;4.90;99.90
3860;DHT22;1945;52.036;8.614;2022-12-07T11:01:31;4.80;99.90
3860;DHT22;1945;52.036;8.614;2022-12-07T11:04:15;5.20;99.90
3860;DHT22;1945;52.036;8.614;2022-12-07T11:06:47;4.80;99.90
3860;DHT22;1945;52.036;8.614;2022-12-07T11:12:15;5.20;99.90
3860;DHT22;1945;52.036;8.614;2022-12-07T11:14:55;4.40;99.90
3860;DHT22;1945;52.036;8.614;2022-12-07T11:17:31;4.30;99.90
3860;DHT22;1945;52.036;8.614;2022-12-07T11:20:04;4.40;99.90
3860;DHT22;1945;52.036;8.614;2022-12-07T11:22:43;5.00;99.90
3860;DHT22;1945;52.036;8.614;2022-12-07T11:25:21;5.40;99.90
3860;DHT22;1945;52.036;8.614;2022-12-07T11:28:03;5.00;99.90
3860;DHT22;1945;52.036;8.614;2022-12-07T11:30:40;4.90;99.90
3860;DHT22;1945;52.036;8.614;2022-12-07T11:33:15;4.50;99.90
3860;DHT22;1945;52.036;8.614;2022-12-07T11:35:53;5.60;99.90
3860;DHT22;1945;52.036;8.614;2022-12-07T11:38:28;5.10;99.90
3860;DHT22;1945;52.036;8.614;2022-12-07T11:41:01;5.50;99.90
3860;DHT22;1945;52.036;8.614;2022-12-07T11:43:50;5.40;93.40
3860;DHT22;1945;52.036;8.614;2022-12-07T11:46:22;5.20;76.70
3860;DHT22;1945;52.036;8.614;2022-12-07T11:48:58;5.10;25.20
3860;DHT22;1945;52.036;8.614;2022-12-07T11:51:28;5.10;1.00
3860;DHT22;1945;52.036;8.614;2022-12-07T11:54:01;5.50;21.10
3860;DHT22;1945;52.036;8.614;2022-12-07T11:56:29;5.70;1.00
3860;DHT22;1945;52.036;8.614;2022-12-07T11:58:59;5.70;1.00
3860;DHT22;1945;52.036;8.614;2022-12-07T12:01:39;5.20;1.00
3860;DHT22;1945;52.036;8.614;2022-12-07T12:04:23;4.80;1.00
3860;DHT22;1945;52.036;8.614;2022-12-07T12:06:53;5.30;1.00
3860;DHT22;1945;52.036;8.614;2022-12-07T12:09:25;5.70;1.00
3860;DHT22;1945;52.036;8.614;2022-12-07T12:12:19;5.20;1.00
3860;DHT22;1945;52.036;8.614;2022-12-07T12:15:01;5.50;1.00
3860;DHT22;1945;52.036;8.614;2022-12-07T12:17:41;5.60;1.00
3860;DHT22;1945;52.036;8.614;2022-12-07T12:20:20;5.60;1.00
3860;DHT22;1945;52.036;8.614;2022-12-07T12:22:53;5.70;1.00
3860;DHT22;1945;52.036;8.614;2022-12-07T12:25:24;5.30;1.00
3860;DHT22;1945;52.036;8.614;2022-12-07T12:27:54;5.80;1.00
3860;DHT22;1945;52.036;8.614;2022-12-07T12:30:30;5.80;1.00
3860;DHT22;1945;52.036;8.614;2022-12-07T12:33:06;5.60;1.00
3860;DHT22;1945;52.036;8.614;2022-12-07T12:35:40;5.80;1.00
3860;DHT22;1945;52.036;8.614;2022-12-07T12:38:26;5.40;1.00
3860;DHT22;1945;52.036;8.614;2022-12-07T12:40:54;6.30;1.00
3860;DHT22;1945;52.036;8.614;2022-12-07T12:43:43;5.30;1.00
3860;DHT22;1945;52.036;8.614;2022-12-07T12:46:37;5.70;1.00
3860;DHT22;1945;52.036;8.614;2022-12-07T12:49:34;5.70;99.90
3860;DHT22;1945;52.036;8.614;2022-12-07T12:55:16;5.70;1.00
3860;DHT22;1945;52.036;8.614;2022-12-07T12:57:47;5.70;99.90
3860;DHT22;1945;52.036;8.614;2022-12-07T13:00:19;5.20;1.00
3860;DHT22;1945;52.036;8.614;2022-12-07T13:02:51;6.10;1.00
3860;DHT22;1945;52.036;8.614;2022-12-07T13:05:20;6.20;1.00
3860;DHT22;1945;52.036;8.614;2022-12-07T13:08:17;5.70;1.00
3860;DHT22;1945;52.036;8.614;2022-12-07T13:10:46;6.10;1.00
3860;DHT22;1945;52.036;8.614;2022-12-07T13:13:32;5.30;1.00
3860;DHT22;1945;52.036;8.614;2022-12-07T13:16:38;5.70;1.00
3860;DHT22;1945;52.036;8.614;2022-12-07T13:19:53;5.70;1.00
3860;DHT22;1945;52.036;8.614;2022-12-07T13:22:48;5.70;1.00
3860;DHT22;1945;52.036;8.614;2022-12-07T13:25:33;6.20;99.90
3860;DHT22;1945;52.036;8.614;2022-12-07T13:28:10;6.00;99.90
3860;DHT22;1945;52.036;8.614;2022-12-07T13:30:45;5.40;1.00
3860;DHT22;1945;52.036;8.614;2022-12-07T13:33:13;5.60;1.00
3860;DHT22;1945;52.036;8.614;2022-12-07T13:35:41;5.80;1.00
3860;DHT22;1945;52.036;8.614;2022-12-07T13:38:22;5.70;1.00
3860;DHT22;1945;52.036;8.614;2022-12-07T13:41:13;5.70;1.00
3860;DHT22;1945;52.036;8.614;2022-12-07T13:43:45;5.60;1.00
3860;DHT22;1945;52.036;8.614;2022-12-07T13:46:12;5.90;1.00
3860;DHT22;1945;52.036;8.614;2022-12-07T13:48:45;5.40;1.00
3860;DHT22;1945;52.036;8.614;2022-12-07T13:51:18;6.00;1.00
3860;DHT22;1945;52.036;8.614;2022-12-07T13:53:49;5.60;1.00
3860;DHT22;1945;52.036;8.614;2022-12-07T13:56:21;5.50;1.00
3860;DHT22;1945;52.036;8.614;2022-12-07T13:58:48;5.50;1.00
3860;DHT22;1945;52.036;8.614;2022-12-07T14:01:15;5.40;1.00
3860;DHT22;1945;52.036;8.614;2022-12-07T14:03:42;6.00;1.00
3860;DHT22;1945;52.036;8.614;2022-12-07T14:06:24;5.80;1.00
3860;DHT22;1945;52.036;8.614;2022-12-07T14:09:08;5.80;1.00
3860;DHT22;1945;52.036;8.614;2022-12-07T14:11:37;5.90;1.00
3860;DHT22;1945;52.036;8.614;2022-12-07T14:14:05;5.10;1.00
3860;DHT22;1945;52.036;8.614;2022-12-07T14:16:33;5.10;1.00
3860;DHT22;1945;52.036;8.614;2022-12-07T14:19:02;4.90;1.00
3860;DHT22;1945;52.036;8.614;2022-12-07T14:21:30;5.20;1.00
3860;DHT22;1945;52.036;8.614;2022-12-07T14:24:17;5.70;1.00
3860;DHT22;1945;52.036;8.614;2022-12-07T14:26:46;5.10;1.00
3860;DHT22;1945;52.036;8.614;2022-12-07T14:29:31;5.10;1.00
3860;DHT22;1945;52.036;8.614;2022-12-07T14:32:13;5.00;1.00
3860;DHT22;1945;52.036;8.614;2022-12-07T14:34:42;5.00;1.00
3860;DHT22;1945;52.036;8.614;2022-12-07T14:37:18;5.00;1.00
3860;DHT22;1945;52.036;8.614;2022-12-07T14:39:45;4.40;1.00
3860;DHT22;1945;52.036;8.614;2022-12-07T14:42:13;5.30;1.00
3860;DHT22;1945;52.036;8.614;2022-12-07T14:44:40;4.90;1.00
3860;DHT22;1945;52.036;8.614;2022-12-07T14:47:08;4.90;1.00
3860;DHT22;1945;52.036;8.614;2022-12-07T14:49:36;5.40;1.00
3860;DHT22;1945;52.036;8.614;2022-12-07T14:52:03;5.30;1.00
3860;DHT22;1945;52.036;8.614;2022-12-07T14:54:31;5.40;1.00
3860;DHT22;1945;52.036;8.614;2022-12-07T14:56:59;4.40;1.00
3860;DHT22;1945;52.036;8.614;2022-12-07T14:59:28;4.90;1.00
3860;DHT22;1945;52.036;8.614;2022-12-07T15:01:55;4.60;1.00
3860;DHT22;1945;52.036;8.614;2022-12-07T15:04:21;4.70;1.00
3860;DHT22;1945;52.036;8.614;2022-12-07T15:06:55;4.50;1.00
3860;DHT22;1945;52.036;8.614;2022-12-07T15:09:22;4.60;1.00
3860;DHT22;1945;52.036;8.614;2022-12-07T15:11:49;5.20;1.00
3860;DHT22;1945;52.036;8.614;2022-12-07T15:14:16;5.10;1.00
3860;DHT22;1945;52.036;8.614;2022-12-07T15:16:44;5.00;1.00
3860;DHT22;1945;52.036;8.614;2022-12-07T15:19:13;5.10;1.00
3860;DHT22;1945;52.036;8.614;2022-12-07T15:21:40;4.60;1.00
3860;DHT22;1945;52.036;8.614;2022-12-07T15:24:09;5.00;1.00
3860;DHT22;1945;52.036;8.614;2022-12-07T15:26:36;4.30;27.30
3860;DHT22;1945;52.036;8.614;2022-12-07T15:29:03;4.60;75.80
3860;DHT22;1945;52.036;8.614;2022-12-07T15:31:30;4.00;99.90
3860;DHT22;1945;52.036;8.614;2022-12-07T15:33:58;4.20;99.90
3860;DHT22;1945;52.036;8.614;2022-12-07T15:36:27;4.00;99.90
3860;DHT22;1945;52.036;8.614;2022-12-07T15:38:55;4.90;99.90
3860;DHT22;1945;52.036;8.614;2022-12-07T15:41:21;4.90;99.90
3860;DHT22;1945;52.036;8.614;2022-12-07T15:43:48;4.00;99.90
3860;DHT22;1945;52.036;8.614;2022-12-07T15:46:34;4.90;99.90
3860;DHT22;1945;52.036;8.614;2022-12-07T15:49:03;4.00;94.60
3860;DHT22;1945;52.036;8.614;2022-12-07T15:51:30;4.80;96.70
3860;DHT22;1945;52.036;8.614;2022-12-07T15:53:58;4.20;92.20
3860;DHT22;1945;52.036;8.614;2022-12-07T15:56:25;4.00;90.90
3860;DHT22;1945;52.036;8.614;2022-12-07T15:58:51;4.50;91.50
3860;DHT22;1945;52.036;8.614;2022-12-07T16:01:19;4.70;99.90
3860;DHT22;1945;52.036;8.614;2022-12-07T16:03:47;4.80;99.90
3860;DHT22;1945;52.036;8.614;2022-12-07T16:06:19;4.70;99.90
3860;DHT22;1945;52.036;8.614;2022-12-07T16:08:46;4.60;99.90
3860;DHT22;1945;52.036;8.614;2022-12-07T16:11:13;5.00;99.90
3860;DHT22;1945;52.036;8.614;2022-12-07T16:13:40;4.50;99.90
3860;DHT22;1945;52.036;8.614;2022-12-07T16:16:09;4.40;61.10
3860;DHT22;1945;52.036;8.614;2022-12-07T16:18:36;4.50;11.00
3860;DHT22;1945;52.036;8.614;2022-12-07T16:21:03;3.80;61.90
3860;DHT22;1945;52.036;8.614;2022-12-07T16:23:32;3.60;99.90
3860;DHT22;1945;52.036;8.614;2022-12-07T16:26:04;3.20;99.90
3860;DHT22;1945;52.036;8.614;2022-12-07T16:28:31;4.10;99.90
3860;DHT22;1945;52.036;8.614;2022-12-07T16:31:03;3.50;99.90
3860;DHT22;1945;52.036;8.614;2022-12-07T16:33:29;3.10;99.90
3860;DHT22;1945;52.036;8.614;2022-12-07T16:35:58;3.40;99.90
3860;DHT22;1945;52.036;8.614;2022-12-07T16:38:24;3.40;99.90
3860;DHT22;1945;52.036;8.614;2022-12-07T16:40:53;3.10;99.90
3860;DHT22;1945;52.036;8.614;2022-12-07T16:43:19;3.30;99.90
3860;DHT22;1945;52.036;8.614;2022-12-07T16:45:46;2.80;99.90
3860;DHT22;1945;52.036;8.614;2022-12-07T16:48:13;3.10;99.90
3860;DHT22;1945;52.036;8.614;2022-12-07T16:50:41;3.10;99.90
3860;DHT22;1945;52.036;8.614;2022-12-07T16:53:08;3.00;99.90